createdAt,value
2019-05-16T00:00:29.408Z,9.60
2019-05-16T00:02:54.886Z,9.60
2019-05-16T00:05:20.493Z,9.60
2019-05-16T00:07:45.856Z,9.50
2019-05-16T00:10:11.399Z,9.50
2019-05-16T00:12:39.717Z,9.50
2019-05-16T00:15:04.034Z,9.50
2019-05-16T00:17:29.550Z,9.50
2019-05-16T00:19:54.928Z,9.40
2019-05-16T00:22:20.277Z,9.40
2019-05-16T00:24:45.814Z,9.40
2019-05-16T00:27:11.230Z,9.40
2019-05-16T00:29:38.328Z,9.30
2019-05-16T00:32:04.107Z,9.30
2019-05-16T00:34:29.552Z,9.20
2019-05-16T00:36:54.975Z,9.20
2019-05-16T00:39:20.337Z,9.20
2019-05-16T00:41:47.893Z,9.20
2019-05-16T00:44:15.138Z,9.10
2019-05-16T00:46:40.855Z,9.10
2019-05-16T00:49:08.304Z,9.10
2019-05-16T00:51:34.327Z,9.10
2019-05-16T00:53:59.666Z,9.10
2019-05-16T00:56:25.581Z,9.00
2019-05-16T00:58:51.425Z,9.00
2019-05-16T01:01:18.944Z,9.00
2019-05-16T01:03:44.577Z,9.00
2019-05-16T01:06:19.173Z,8.90
2019-05-16T01:08:38.577Z,8.90
2019-05-16T01:11:04.802Z,8.90
2019-05-16T01:13:30.158Z,8.90
2019-05-16T01:15:57.777Z,8.90
2019-05-16T01:18:22.629Z,8.90
2019-05-16T01:20:48.274Z,8.90
2019-05-16T01:23:13.770Z,8.90
2019-05-16T01:25:40.598Z,8.90
2019-05-16T01:28:06.087Z,8.90
2019-05-16T01:30:31.516Z,8.90
2019-05-16T01:32:58.288Z,8.90
2019-05-16T01:35:23.768Z,8.90
2019-05-16T01:37:49.159Z,8.90
2019-05-16T01:40:15.131Z,8.90
2019-05-16T01:42:40.482Z,8.90
2019-05-16T01:45:08.097Z,8.90
2019-05-16T01:47:32.891Z,8.90
2019-05-16T01:49:58.278Z,8.90
2019-05-16T01:52:23.616Z,8.90
2019-05-16T01:54:48.994Z,8.90
2019-05-16T01:57:14.542Z,8.90
2019-05-16T01:59:39.946Z,8.90
2019-05-16T02:02:05.314Z,8.90
2019-05-16T02:04:30.673Z,8.90
2019-05-16T02:06:58.273Z,8.90
2019-05-16T02:09:23.137Z,8.90
2019-05-16T02:11:48.519Z,8.90
2019-05-16T02:14:14.829Z,8.90
2019-05-16T02:16:40.223Z,8.90
2019-05-16T02:19:07.847Z,8.90
2019-05-16T02:21:32.722Z,8.90
2019-05-16T02:23:58.969Z,8.90
2019-05-16T02:26:25.054Z,8.90
2019-05-16T02:28:51.095Z,9.00
2019-05-16T02:31:16.464Z,9.00
2019-05-16T02:33:41.840Z,9.00
2019-05-16T02:36:10.653Z,8.90
2019-05-16T02:38:34.179Z,9.00
2019-05-16T02:41:02.639Z,8.90
2019-05-16T02:43:26.829Z,9.00
2019-05-16T02:45:52.516Z,9.00
2019-05-16T02:48:20.939Z,9.00
2019-05-16T02:50:44.911Z,9.00
2019-05-16T02:53:12.752Z,9.00
2019-05-16T02:55:37.267Z,9.00
2019-05-16T02:58:02.641Z,9.10
2019-05-16T03:00:36.050Z,9.10
2019-05-16T03:03:01.467Z,9.10
2019-05-16T03:05:30.412Z,9.20
2019-05-16T03:07:54.980Z,9.10
2019-05-16T03:10:20.500Z,9.10
2019-05-16T03:12:47.460Z,9.10
2019-05-16T03:15:12.956Z,9.10
2019-05-16T03:17:41.236Z,9.00
2019-05-16T03:20:07.012Z,9.10
2019-05-16T03:22:32.385Z,9.10
2019-05-16T03:25:00.682Z,9.10
2019-05-16T03:27:24.778Z,9.10
2019-05-16T03:29:50.736Z,9.10
2019-05-16T03:32:16.233Z,9.00
2019-05-16T03:34:43.879Z,9.00
2019-05-16T03:37:14.042Z,8.90
2019-05-16T03:39:36.807Z,9.00
2019-05-16T03:42:02.157Z,9.00
2019-05-16T03:44:27.529Z,9.00
2019-05-16T03:46:52.907Z,9.10
2019-05-16T03:49:21.142Z,9.10
2019-05-16T03:51:46.206Z,9.10
2019-05-16T03:54:12.555Z,9.20
2019-05-16T03:56:40.538Z,9.10
2019-05-16T03:59:05.120Z,9.10
2019-05-16T04:01:31.297Z,9.10
2019-05-16T04:03:56.936Z,9.20
2019-05-16T04:06:22.395Z,9.10
2019-05-16T04:08:50.908Z,9.10
2019-05-16T04:11:18.209Z,9.20
2019-05-16T04:13:41.766Z,9.20
2019-05-16T04:16:07.183Z,9.20
2019-05-16T04:18:32.511Z,9.20
2019-05-16T04:21:01.073Z,9.30
2019-05-16T04:23:25.910Z,9.30
2019-05-16T04:25:53.069Z,9.30
2019-05-16T04:28:21.364Z,9.30
2019-05-16T04:30:45.224Z,9.30
2019-05-16T04:33:11.047Z,9.30
2019-05-16T04:35:36.437Z,9.30
2019-05-16T04:38:02.094Z,9.30
2019-05-16T04:40:27.475Z,9.30
2019-05-16T04:42:52.859Z,9.30
2019-05-16T04:45:21.049Z,9.30
2019-05-16T04:47:45.220Z,9.30
2019-05-16T04:50:12.270Z,9.20
2019-05-16T04:52:37.718Z,9.30
2019-05-16T04:55:03.091Z,9.30
2019-05-16T04:57:31.378Z,9.30
2019-05-16T04:59:56.407Z,9.30
2019-05-16T05:02:21.747Z,9.30
2019-05-16T05:04:47.114Z,9.30
2019-05-16T05:07:12.442Z,9.40
2019-05-16T05:09:40.621Z,9.40
2019-05-16T05:12:05.025Z,9.30
2019-05-16T05:14:30.893Z,9.40
2019-05-16T05:16:56.287Z,9.40
2019-05-16T05:19:21.639Z,9.40
2019-05-16T05:21:47.012Z,9.40
2019-05-16T05:24:12.354Z,9.50
2019-05-16T05:26:37.728Z,9.40
2019-05-16T05:29:03.066Z,9.50
2019-05-16T05:31:34.339Z,9.50
2019-05-16T05:33:55.477Z,9.50
2019-05-16T05:36:21.226Z,9.40
2019-05-16T05:38:48.373Z,9.40
2019-05-16T05:41:13.618Z,9.50
2019-05-16T05:43:39.723Z,9.50
2019-05-16T05:46:06.291Z,9.50
2019-05-16T05:48:31.685Z,9.50
2019-05-16T05:50:57.039Z,9.50
2019-05-16T05:53:22.446Z,9.50
2019-05-16T05:55:50.657Z,9.50
2019-05-16T05:58:15.107Z,9.50
2019-05-16T06:00:40.666Z,9.50
2019-05-16T06:03:06.149Z,9.50
2019-05-16T06:05:32.586Z,9.50
2019-05-16T06:08:00.170Z,9.50
2019-05-16T06:10:24.930Z,9.50
2019-05-16T06:12:50.322Z,9.60
2019-05-16T06:15:15.874Z,9.60
2019-05-16T06:17:41.313Z,9.60
2019-05-16T06:20:14.031Z,9.60
2019-05-16T06:22:36.494Z,9.60
2019-05-16T06:25:02.146Z,9.60
2019-05-16T06:27:30.216Z,9.70
2019-05-16T06:29:57.373Z,9.70
2019-05-16T06:32:23.425Z,9.70
2019-05-16T06:34:50.642Z,9.70
2019-05-16T06:37:15.788Z,9.70
2019-05-16T06:39:45.342Z,9.80
2019-05-16T06:42:09.854Z,9.80
2019-05-16T06:44:35.335Z,9.80
2019-05-16T06:47:15.913Z,9.80
2019-05-16T06:49:27.738Z,9.80
2019-05-16T06:51:54.735Z,9.70
2019-05-16T06:54:21.057Z,9.70
2019-05-16T06:56:46.390Z,9.70
2019-05-16T06:59:12.826Z,9.70
2019-05-16T07:01:40.266Z,9.80
2019-05-16T07:04:05.225Z,9.90
2019-05-16T07:06:47.568Z,9.90
2019-05-16T07:09:00.891Z,10.00
2019-05-16T07:11:25.583Z,9.90
2019-05-16T07:13:52.039Z,9.90
2019-05-16T07:16:17.626Z,10.00
2019-05-16T07:18:43.051Z,10.00
2019-05-16T07:21:10.650Z,10.00
2019-05-16T07:23:35.479Z,10.00
2019-05-16T07:26:01.008Z,10.10
2019-05-16T07:28:26.298Z,10.10
2019-05-16T07:30:51.683Z,10.10
2019-05-16T07:33:17.045Z,10.10
2019-05-16T07:35:42.430Z,10.10
2019-05-16T07:38:07.766Z,10.20
2019-05-16T07:40:33.257Z,10.10
2019-05-16T07:43:00.063Z,10.20
2019-05-16T07:45:25.474Z,10.10
2019-05-16T07:47:51.158Z,10.10
2019-05-16T07:50:16.642Z,10.10
2019-05-16T07:52:41.762Z,10.10
2019-05-16T07:55:07.019Z,10.10
2019-05-16T07:57:32.149Z,10.10
2019-05-16T07:59:57.239Z,10.10
2019-05-16T08:02:22.358Z,10.20
2019-05-16T08:04:50.015Z,10.20
2019-05-16T08:07:14.502Z,10.20
2019-05-16T08:09:39.772Z,10.20
2019-05-16T08:12:06.006Z,10.30
2019-05-16T08:14:34.970Z,10.30
2019-05-16T08:17:00.960Z,10.40
2019-05-16T08:19:25.369Z,10.40
2019-05-16T08:21:50.754Z,10.40
2019-05-16T08:24:15.929Z,10.50
2019-05-16T08:26:43.045Z,10.50
2019-05-16T08:29:07.794Z,10.40
2019-05-16T08:31:32.924Z,10.50
2019-05-16T08:34:00.895Z,10.50
2019-05-16T08:36:24.896Z,10.50
2019-05-16T08:38:51.536Z,10.60
2019-05-16T08:41:17.393Z,10.60
2019-05-16T08:43:43.567Z,10.60
2019-05-16T08:46:12.360Z,10.70
2019-05-16T08:48:35.494Z,10.70
2019-05-16T08:53:31.378Z,10.60
2019-05-16T08:55:54.223Z,10.70
2019-05-16T08:58:23.533Z,10.70
2019-05-16T09:00:46.031Z,10.70
2019-05-16T09:03:12.314Z,10.80
2019-05-16T09:05:37.758Z,10.80
2019-05-16T09:08:03.120Z,10.80
2019-05-16T09:10:50.027Z,10.90
2019-05-16T09:12:57.208Z,10.90
2019-05-16T09:15:21.719Z,11.00
2019-05-16T09:17:47.572Z,11.00
2019-05-16T09:18:39.074Z,10.70
2019-05-16T09:20:13.815Z,11.00
2019-05-16T09:22:38.922Z,11.10
2019-05-16T09:25:04.051Z,11.10
2019-05-16T09:27:30.147Z,11.10
2019-05-16T09:29:56.750Z,11.10
2019-05-16T09:32:22.214Z,11.10
2019-05-16T09:34:47.960Z,11.00
2019-05-16T09:37:13.334Z,11.10
2019-05-16T09:39:38.439Z,11.00
2019-05-16T09:42:03.554Z,11.10
2019-05-16T09:44:28.683Z,11.10
2019-05-16T09:46:53.794Z,11.10
2019-05-16T09:49:28.752Z,11.10
2019-05-16T09:51:46.623Z,11.20
2019-05-16T09:54:11.925Z,11.20
2019-05-16T09:56:37.409Z,11.10
2019-05-16T09:59:02.528Z,11.20
2019-05-16T10:01:27.783Z,11.20
2019-05-16T10:03:52.854Z,11.20
2019-05-16T10:06:19.204Z,11.20
2019-05-16T10:08:46.423Z,11.20
2019-05-16T10:11:11.276Z,11.20
2019-05-16T10:13:37.542Z,11.20
2019-05-16T10:16:02.917Z,11.20
2019-05-16T10:18:29.025Z,11.20
2019-05-16T10:20:54.143Z,11.20
2019-05-16T10:23:19.369Z,11.20
2019-05-16T10:25:44.514Z,11.30
2019-05-16T10:28:09.690Z,11.30
2019-05-16T10:30:34.804Z,11.30
2019-05-16T10:33:01.018Z,11.40
2019-05-16T10:35:29.311Z,11.40
2019-05-16T10:37:53.070Z,11.40
2019-05-16T10:40:18.584Z,11.40
2019-05-16T10:42:43.846Z,11.40
2019-05-16T10:45:09.269Z,11.50
2019-05-16T10:47:36.916Z,11.50
2019-05-16T10:50:02.099Z,11.50
2019-05-16T10:52:27.235Z,11.50
2019-05-16T10:54:58.439Z,11.60
2019-05-16T10:57:19.443Z,11.60
2019-05-16T11:00:05.157Z,11.70
2019-05-16T11:02:11.687Z,11.70
2019-05-16T11:04:52.893Z,11.80
2019-05-16T11:07:03.603Z,11.80
2019-05-16T11:09:28.783Z,11.80
2019-05-16T11:11:53.932Z,11.90
2019-05-16T11:14:19.030Z,11.90
2019-05-16T11:16:44.284Z,12.00
2019-05-16T11:19:17.221Z,12.00
2019-05-16T11:21:38.000Z,12.00
2019-05-16T11:24:03.166Z,12.00
2019-05-16T11:26:30.236Z,12.10
2019-05-16T11:28:56.765Z,12.20
2019-05-16T11:31:21.916Z,12.20
2019-05-16T11:33:47.825Z,12.20
2019-05-16T11:36:13.209Z,12.30
2019-05-16T11:38:38.892Z,12.30
2019-05-16T11:41:04.040Z,12.30
2019-05-16T11:43:29.139Z,12.20
2019-05-16T11:45:54.242Z,12.30
2019-05-16T11:48:19.395Z,12.30
2019-05-16T11:50:44.516Z,12.30
2019-05-16T11:53:09.675Z,12.40
2019-05-16T11:55:40.457Z,12.40
2019-05-16T11:58:01.654Z,12.40
2019-05-16T12:00:30.580Z,12.50
2019-05-16T12:02:53.509Z,12.50
2019-05-16T12:05:19.254Z,12.60
2019-05-16T12:07:47.872Z,12.60
2019-05-16T12:10:11.730Z,12.60
2019-05-16T12:12:37.141Z,12.60
2019-05-16T12:15:02.310Z,12.80
2019-05-16T12:17:28.043Z,12.80
2019-05-16T12:19:53.253Z,12.80
2019-05-16T12:22:18.499Z,12.80
2019-05-16T12:24:43.574Z,12.90
2019-05-16T12:27:08.733Z,12.90
2019-05-16T12:29:33.807Z,12.90
2019-05-16T12:32:02.724Z,12.90
2019-05-16T12:34:25.638Z,12.90
2019-05-16T12:36:50.744Z,12.90
2019-05-16T12:39:17.255Z,12.90
2019-05-16T12:41:42.508Z,13.00
2019-05-16T12:44:07.729Z,12.90
2019-05-16T12:46:32.910Z,12.90
2019-05-16T12:48:58.065Z,12.90
2019-05-16T12:51:23.171Z,12.90
2019-05-16T12:53:48.291Z,12.90
2019-05-16T12:56:13.423Z,13.00
2019-05-16T12:58:41.925Z,13.00
2019-05-16T13:01:07.459Z,13.10
2019-05-16T13:03:31.994Z,13.10
2019-05-16T13:05:57.267Z,13.10
2019-05-16T13:08:22.463Z,13.10
2019-05-16T13:10:47.570Z,13.20
2019-05-16T13:13:12.679Z,13.30
2019-05-16T13:15:40.220Z,13.20
2019-05-16T13:18:07.679Z,13.30
2019-05-16T13:20:31.555Z,13.30
2019-05-16T13:22:56.943Z,13.30
2019-05-16T13:25:22.038Z,13.30
2019-05-16T13:27:47.639Z,13.30
2019-05-16T13:30:13.357Z,13.30
2019-05-16T13:32:38.496Z,13.30
2019-05-16T13:35:07.431Z,13.40
2019-05-16T13:37:31.555Z,13.40
2019-05-16T13:39:56.948Z,13.40
2019-05-16T13:42:22.183Z,13.40
2019-05-16T13:44:47.338Z,13.50
2019-05-16T13:47:12.741Z,13.50
2019-05-16T13:49:38.534Z,13.50
2019-05-16T13:52:04.063Z,13.60
2019-05-16T13:54:29.248Z,13.60
2019-05-16T13:56:57.081Z,13.60
2019-05-16T13:59:21.136Z,13.70
2019-05-16T14:01:46.283Z,13.80
2019-05-16T14:04:11.481Z,13.90
2019-05-16T14:06:36.942Z,13.80
2019-05-16T14:09:02.111Z,13.90
2019-05-16T14:11:28.397Z,13.90
2019-05-16T14:13:53.523Z,13.90
2019-05-16T14:16:19.625Z,13.90
2019-05-16T14:18:46.875Z,13.90
2019-05-16T14:21:11.842Z,14.00
2019-05-16T14:23:38.115Z,14.10
2019-05-16T14:26:03.515Z,14.10
2019-05-16T14:28:28.703Z,14.10
2019-05-16T14:30:54.126Z,14.10
2019-05-16T14:33:19.358Z,14.00
2019-05-16T14:35:47.004Z,14.00
2019-05-16T14:38:11.202Z,14.10
2019-05-16T14:40:37.378Z,14.00
2019-05-16T14:43:02.757Z,14.10
2019-05-16T14:45:27.874Z,14.10
2019-05-16T14:47:53.033Z,14.00
2019-05-16T14:50:18.225Z,14.00
2019-05-16T14:52:44.307Z,14.10
2019-05-16T14:55:09.515Z,14.00
2019-05-16T14:57:36.606Z,14.00
2019-05-16T15:00:01.358Z,14.00
2019-05-16T15:02:27.775Z,14.00
2019-05-16T15:04:53.174Z,14.10
2019-05-16T15:07:19.345Z,14.10
2019-05-16T15:09:46.987Z,14.10
2019-05-16T15:12:11.537Z,14.10
2019-05-16T15:14:37.455Z,14.10
2019-05-16T15:17:02.903Z,14.10
2019-05-16T15:19:29.289Z,14.10
2019-05-16T15:21:56.747Z,14.10
2019-05-16T15:24:21.542Z,14.10
2019-05-16T15:26:47.241Z,14.10
2019-05-16T15:29:12.474Z,14.10
2019-05-16T15:31:39.461Z,14.20
2019-05-16T15:34:04.448Z,14.20
2019-05-16T15:36:29.564Z,14.10
2019-05-16T15:38:56.706Z,14.10
2019-05-16T15:41:21.452Z,14.10
2019-05-16T15:43:46.562Z,14.10
2019-05-16T15:46:11.754Z,14.10
2019-05-16T15:48:37.217Z,14.10
2019-05-16T15:51:03.427Z,14.20
2019-05-16T15:53:29.547Z,14.20
2019-05-16T15:55:54.819Z,14.10
2019-05-16T15:58:32.190Z,14.10
2019-05-16T16:00:57.808Z,14.10
2019-05-16T16:03:23.220Z,14.10
2019-05-16T16:05:48.458Z,14.10
2019-05-16T16:08:13.570Z,14.10
2019-05-16T16:10:39.521Z,14.10
2019-05-16T16:13:06.756Z,14.10
2019-05-16T16:15:32.481Z,14.00
2019-05-16T16:17:57.596Z,14.00
2019-05-16T16:20:23.710Z,14.00
2019-05-16T16:22:48.814Z,14.00
2019-05-16T16:25:14.002Z,14.00
2019-05-16T16:27:40.298Z,14.00
2019-05-16T16:30:06.958Z,14.00
2019-05-16T16:32:32.162Z,14.00
2019-05-16T16:34:57.660Z,14.10
2019-05-16T16:37:23.723Z,14.10
2019-05-16T16:39:48.828Z,14.00
2019-05-16T16:42:13.982Z,14.00
2019-05-16T16:44:39.110Z,14.00
2019-05-16T16:47:06.577Z,13.90
2019-05-16T16:49:31.506Z,14.00
2019-05-16T16:51:57.364Z,14.00
2019-05-16T16:54:22.848Z,14.00
2019-05-16T16:56:48.096Z,14.00
2019-05-16T16:59:13.478Z,14.00
2019-05-16T17:01:38.575Z,14.00
2019-05-16T17:04:03.802Z,14.00
2019-05-16T17:06:28.929Z,14.00
2019-05-16T17:08:56.646Z,14.10
2019-05-16T17:11:20.814Z,14.00
2019-05-16T17:13:47.295Z,14.00
2019-05-16T17:16:25.264Z,14.00
2019-05-16T17:18:39.282Z,14.00
2019-05-16T17:21:04.411Z,14.00
2019-05-16T17:23:29.531Z,14.00
2019-05-16T17:25:56.754Z,14.00
2019-05-16T17:28:21.411Z,14.00
2019-05-16T17:30:47.221Z,14.00
2019-05-16T17:33:12.921Z,14.00
2019-05-16T17:35:39.126Z,13.90
2019-05-16T17:38:06.493Z,14.00
2019-05-16T17:40:31.239Z,14.00
2019-05-16T17:42:56.887Z,13.90
2019-05-16T17:45:22.438Z,13.90
2019-05-16T17:47:47.605Z,13.90
2019-05-16T17:50:13.275Z,13.80
2019-05-16T17:52:38.401Z,13.80
2019-05-16T17:55:03.621Z,13.80
2019-05-16T17:57:30.166Z,13.80
2019-05-16T17:59:57.459Z,13.80
2019-05-16T18:02:22.143Z,13.80
2019-05-16T18:04:47.297Z,13.80
2019-05-16T18:07:12.418Z,13.80
2019-05-16T18:09:37.557Z,13.80
2019-05-16T18:12:02.959Z,13.70
2019-05-16T18:14:28.078Z,13.80
2019-05-16T18:16:58.754Z,13.70
2019-05-16T18:19:19.950Z,13.70
2019-05-16T18:21:46.431Z,13.70
2019-05-16T18:24:11.592Z,13.70
2019-05-16T18:26:37.366Z,13.70
2019-05-16T18:29:02.521Z,13.70
2019-05-16T18:31:27.697Z,13.70
2019-05-16T18:33:52.807Z,13.70
2019-05-16T18:36:18.142Z,13.70
2019-05-16T18:38:43.292Z,13.70
2019-05-16T18:41:08.392Z,13.70
2019-05-16T18:43:33.593Z,13.70
2019-05-16T18:45:58.722Z,13.70
2019-05-16T18:48:23.832Z,13.60
2019-05-16T18:50:48.913Z,13.60
2019-05-16T18:53:14.079Z,13.50
2019-05-16T18:55:39.195Z,13.50
2019-05-16T18:58:07.530Z,13.50
2019-05-16T19:00:31.286Z,13.50
2019-05-16T19:02:59.191Z,13.50
2019-05-16T19:05:23.135Z,13.50
2019-05-16T19:07:48.311Z,13.50
2019-05-16T19:10:13.547Z,13.50
2019-05-16T19:12:38.643Z,13.50
2019-05-16T19:15:07.123Z,13.50
2019-05-16T19:17:32.409Z,13.50
2019-05-16T19:19:57.527Z,13.50
2019-05-16T19:22:22.669Z,13.50
2019-05-16T19:24:47.775Z,13.50
2019-05-16T19:27:13.152Z,13.50
2019-05-16T19:29:38.286Z,13.50
2019-05-16T19:32:03.390Z,13.50
2019-05-16T19:34:28.506Z,13.50
2019-05-16T19:36:53.718Z,13.50
2019-05-16T19:39:18.832Z,13.40
2019-05-16T19:41:46.474Z,13.40
2019-05-16T19:44:10.818Z,13.40
2019-05-16T19:46:38.606Z,13.40
2019-05-16T19:49:02.694Z,13.40
2019-05-16T19:51:27.833Z,13.40
2019-05-16T19:53:52.960Z,13.40
2019-05-16T19:56:18.050Z,13.40
2019-05-16T19:58:43.426Z,13.40
2019-05-16T20:01:08.787Z,13.40
2019-05-16T20:03:33.922Z,13.40
2019-05-16T20:05:59.054Z,13.40
2019-05-16T20:08:26.689Z,13.40
2019-05-16T20:10:51.242Z,13.40
2019-05-16T20:13:16.703Z,13.30
2019-05-16T20:15:42.867Z,13.40
2019-05-16T20:18:08.045Z,13.40
2019-05-16T20:20:33.169Z,13.30
2019-05-16T20:22:58.289Z,13.40
2019-05-16T20:25:23.409Z,13.40
2019-05-16T20:27:48.535Z,13.40
2019-05-16T20:30:13.845Z,13.30
2019-05-16T20:32:38.989Z,13.40
2019-05-16T20:35:08.515Z,13.40
2019-05-16T20:37:31.034Z,13.30
2019-05-16T20:39:56.403Z,13.30
2019-05-16T20:42:21.698Z,13.30
2019-05-16T20:44:49.679Z,13.30
2019-05-16T20:47:13.863Z,13.30
2019-05-16T20:49:39.591Z,13.20
2019-05-16T20:52:07.075Z,13.30
2019-05-16T20:54:32.321Z,13.20
2019-05-16T20:57:00.616Z,13.30
2019-05-16T20:59:26.757Z,13.30
2019-05-16T21:01:51.876Z,13.20
2019-05-16T21:04:17.607Z,13.20
2019-05-16T21:06:56.782Z,13.30
2019-05-16T21:09:09.470Z,13.20
2019-05-16T21:11:36.957Z,13.20
2019-05-16T21:14:01.381Z,13.20
2019-05-16T21:16:27.047Z,13.20
2019-05-16T21:18:52.241Z,13.20
2019-05-16T21:21:19.411Z,13.30
2019-05-16T21:23:46.998Z,13.20
2019-05-16T21:26:11.886Z,13.20
2019-05-16T21:28:37.060Z,13.20
2019-05-16T21:31:03.250Z,13.20
2019-05-16T21:33:28.354Z,13.20
2019-05-16T21:35:56.511Z,13.20
2019-05-16T21:38:21.283Z,13.20
2019-05-16T21:40:46.776Z,13.20
2019-05-16T21:43:11.969Z,13.10
2019-05-16T21:45:37.307Z,13.10
2019-05-16T21:48:02.699Z,13.10
2019-05-16T21:50:27.798Z,13.10
2019-05-16T21:52:52.890Z,13.10
2019-05-16T21:55:18.193Z,13.10
2019-05-16T21:57:43.566Z,13.10
2019-05-16T22:00:15.265Z,13.10
2019-05-16T22:02:41.989Z,13.00
2019-05-16T22:05:07.317Z,12.90
2019-05-16T22:07:36.470Z,12.90
2019-05-16T22:10:01.639Z,12.90
2019-05-16T22:12:27.231Z,12.80
2019-05-16T22:14:52.790Z,12.80
2019-05-16T22:17:18.952Z,12.70
2019-05-16T22:19:44.064Z,12.60
2019-05-16T22:22:09.218Z,12.60
2019-05-16T22:24:34.330Z,12.50
2019-05-16T22:26:59.438Z,12.40
2019-05-16T22:29:26.381Z,12.30
2019-05-16T22:31:51.374Z,12.20
2019-05-16T22:34:16.971Z,12.20
2019-05-16T22:36:42.202Z,12.10
2019-05-16T22:39:08.022Z,12.00
2019-05-16T22:41:33.130Z,11.90
2019-05-16T22:43:58.232Z,11.80
2019-05-16T22:46:23.361Z,11.80
2019-05-16T22:48:48.462Z,11.70
2019-05-16T22:51:13.587Z,11.60
2019-05-16T22:53:38.694Z,11.50
2019-05-16T22:56:03.791Z,11.50
2019-05-16T22:58:28.926Z,11.40
2019-05-16T23:00:54.167Z,11.30
2019-05-16T23:03:19.294Z,11.20
2019-05-16T23:05:44.387Z,11.10
2019-05-16T23:08:10.134Z,11.00
2019-05-16T23:10:36.770Z,11.00
2019-05-16T23:13:02.084Z,10.90
2019-05-16T23:15:27.281Z,10.80
2019-05-16T23:17:52.385Z,10.80
2019-05-16T23:20:17.598Z,10.70
2019-05-16T23:22:42.698Z,10.60
2019-05-16T23:25:07.938Z,10.50
2019-05-16T23:27:33.050Z,10.50
2019-05-16T23:29:58.169Z,10.40
2019-05-16T23:32:23.286Z,10.30
2019-05-16T23:34:48.386Z,10.30
2019-05-16T23:37:13.524Z,10.20
2019-05-16T23:39:38.626Z,10.20
2019-05-16T23:42:06.225Z,10.10
2019-05-16T23:44:30.465Z,10.00
2019-05-16T23:46:56.342Z,10.00
2019-05-16T23:49:21.487Z,9.90
2019-05-16T23:51:47.315Z,9.80
2019-05-16T23:54:13.482Z,9.80
2019-05-16T23:56:38.614Z,9.70
2019-05-16T23:59:03.742Z,9.60
